sensor_id;sensor_type;location;lat;lon;timestamp;P1;durP1;ratioP1;P2;durP2;ratioP2
66800;SDS011;53703;50.326;19.122;2024-03-22T00:01:14;22.50;;;11.80;;
66800;SDS011;53703;50.326;19.122;2024-03-22T00:03:43;24.50;;;11.00;;
66800;SDS011;53703;50.326;19.122;2024-03-22T00:06:11;24.50;;;11.10;;
66800;SDS011;53703;50.326;19.122;2024-03-22T00:08:40;23.30;;;11.30;;
66800;SDS011;53703;50.326;19.122;2024-03-22T00:11:09;23.30;;;10.90;;
66800;SDS011;53703;50.326;19.122;2024-03-22T00:13:37;23.50;;;10.60;;
66800;SDS011;53703;50.326;19.122;2024-03-22T00:16:06;25.30;;;11.50;;
66800;SDS011;53703;50.326;19.122;2024-03-22T00:18:35;23.80;;;10.80;;
66800;SDS011;53703;50.326;19.122;2024-03-22T00:21:03;24.00;;;11.00;;
66800;SDS011;53703;50.326;19.122;2024-03-22T00:23:32;24.50;;;10.60;;
66800;SDS011;53703;50.326;19.122;2024-03-22T00:26:01;19.90;;;10.30;;
66800;SDS011;53703;50.326;19.122;2024-03-22T00:28:30;21.60;;;10.40;;
66800;SDS011;53703;50.326;19.122;2024-03-22T00:30:59;22.20;;;10.20;;
66800;SDS011;53703;50.326;19.122;2024-03-22T00:33:28;19.80;;;10.20;;
66800;SDS011;53703;50.326;19.122;2024-03-22T00:35:57;26.20;;;10.70;;
66800;SDS011;53703;50.326;19.122;2024-03-22T00:38:26;21.70;;;10.30;;
66800;SDS011;53703;50.326;19.122;2024-03-22T00:40:55;22.00;;;10.30;;
66800;SDS011;53703;50.326;19.122;2024-03-22T00:43:24;19.70;;;9.60;;
66800;SDS011;53703;50.326;19.122;2024-03-22T00:45:53;22.30;;;10.30;;
66800;SDS011;53703;50.326;19.122;2024-03-22T00:48:21;21.30;;;9.70;;
66800;SDS011;53703;50.326;19.122;2024-03-22T00:50:50;20.80;;;9.60;;
66800;SDS011;53703;50.326;19.122;2024-03-22T00:53:19;20.80;;;9.90;;
66800;SDS011;53703;50.326;19.122;2024-03-22T00:55:48;21.50;;;9.60;;
66800;SDS011;53703;50.326;19.122;2024-03-22T00:58:18;22.60;;;10.10;;
66800;SDS011;53703;50.326;19.122;2024-03-22T01:00:47;21.20;;;9.40;;
66800;SDS011;53703;50.326;19.122;2024-03-22T01:03:16;20.30;;;9.80;;
66800;SDS011;53703;50.326;19.122;2024-03-22T01:05:45;19.80;;;9.50;;
66800;SDS011;53703;50.326;19.122;2024-03-22T01:08:14;18.30;;;9.00;;
66800;SDS011;53703;50.326;19.122;2024-03-22T01:10:43;20.40;;;9.40;;
66800;SDS011;53703;50.326;19.122;2024-03-22T01:13:11;20.80;;;10.10;;
66800;SDS011;53703;50.326;19.122;2024-03-22T01:15:40;21.50;;;9.60;;
66800;SDS011;53703;50.326;19.122;2024-03-22T01:18:09;19.20;;;9.30;;
66800;SDS011;53703;50.326;19.122;2024-03-22T01:20:38;18.00;;;8.30;;
66800;SDS011;53703;50.326;19.122;2024-03-22T01:23:07;20.50;;;9.50;;
66800;SDS011;53703;50.326;19.122;2024-03-22T01:25:36;22.20;;;9.80;;
66800;SDS011;53703;50.326;19.122;2024-03-22T01:28:05;18.60;;;9.10;;
66800;SDS011;53703;50.326;19.122;2024-03-22T01:30:34;18.50;;;9.20;;
66800;SDS011;53703;50.326;19.122;2024-03-22T01:33:04;18.80;;;9.10;;
66800;SDS011;53703;50.326;19.122;2024-03-22T01:35:33;17.40;;;8.90;;
66800;SDS011;53703;50.326;19.122;2024-03-22T01:38:02;19.00;;;9.20;;
66800;SDS011;53703;50.326;19.122;2024-03-22T01:40:31;19.30;;;9.10;;
66800;SDS011;53703;50.326;19.122;2024-03-22T01:43:00;18.00;;;8.30;;
66800;SDS011;53703;50.326;19.122;2024-03-22T01:45:32;19.70;;;9.20;;
66800;SDS011;53703;50.326;19.122;2024-03-22T01:48:01;21.20;;;9.10;;
66800;SDS011;53703;50.326;19.122;2024-03-22T01:50:31;19.00;;;9.40;;
66800;SDS011;53703;50.326;19.122;2024-03-22T01:53:00;19.80;;;8.90;;
66800;SDS011;53703;50.326;19.122;2024-03-22T01:55:29;18.20;;;8.90;;
66800;SDS011;53703;50.326;19.122;2024-03-22T01:57:58;20.40;;;8.50;;
66800;SDS011;53703;50.326;19.122;2024-03-22T02:00:27;19.20;;;8.50;;
66800;SDS011;53703;50.326;19.122;2024-03-22T02:02:57;18.30;;;8.40;;
66800;SDS011;53703;50.326;19.122;2024-03-22T02:05:26;19.20;;;9.30;;
66800;SDS011;53703;50.326;19.122;2024-03-22T02:07:55;19.50;;;9.10;;
66800;SDS011;53703;50.326;19.122;2024-03-22T02:10:24;17.70;;;8.80;;
66800;SDS011;53703;50.326;19.122;2024-03-22T02:12:52;19.30;;;9.90;;
66800;SDS011;53703;50.326;19.122;2024-03-22T02:15:22;17.70;;;8.80;;
66800;SDS011;53703;50.326;19.122;2024-03-22T02:17:51;17.20;;;8.20;;
66800;SDS011;53703;50.326;19.122;2024-03-22T02:20:19;17.80;;;9.00;;
66800;SDS011;53703;50.326;19.122;2024-03-22T02:22:48;16.20;;;7.90;;
66800;SDS011;53703;50.326;19.122;2024-03-22T02:25:17;16.30;;;8.00;;
66800;SDS011;53703;50.326;19.122;2024-03-22T02:27:46;16.40;;;8.30;;
66800;SDS011;53703;50.326;19.122;2024-03-22T02:30:18;16.80;;;8.50;;
66800;SDS011;53703;50.326;19.122;2024-03-22T02:32:47;16.20;;;8.30;;
66800;SDS011;53703;50.326;19.122;2024-03-22T02:35:16;15.30;;;7.80;;
66800;SDS011;53703;50.326;19.122;2024-03-22T02:37:45;15.80;;;8.30;;
66800;SDS011;53703;50.326;19.122;2024-03-22T02:40:14;18.40;;;8.50;;
66800;SDS011;53703;50.326;19.122;2024-03-22T02:42:43;15.80;;;8.10;;
66800;SDS011;53703;50.326;19.122;2024-03-22T02:45:12;17.10;;;8.80;;
66800;SDS011;53703;50.326;19.122;2024-03-22T02:47:41;15.60;;;7.80;;
66800;SDS011;53703;50.326;19.122;2024-03-22T02:50:09;16.50;;;7.90;;
66800;SDS011;53703;50.326;19.122;2024-03-22T02:52:38;15.20;;;7.80;;
66800;SDS011;53703;50.326;19.122;2024-03-22T02:55:07;18.60;;;8.80;;
66800;SDS011;53703;50.326;19.122;2024-03-22T02:57:36;13.80;;;7.70;;
66800;SDS011;53703;50.326;19.122;2024-03-22T03:00:05;17.40;;;8.30;;
66800;SDS011;53703;50.326;19.122;2024-03-22T03:02:35;15.30;;;8.20;;
66800;SDS011;53703;50.326;19.122;2024-03-22T03:05:04;14.90;;;7.70;;
66800;SDS011;53703;50.326;19.122;2024-03-22T03:07:34;17.80;;;7.60;;
66800;SDS011;53703;50.326;19.122;2024-03-22T03:10:03;15.40;;;8.40;;
66800;SDS011;53703;50.326;19.122;2024-03-22T03:12:32;14.60;;;7.70;;
66800;SDS011;53703;50.326;19.122;2024-03-22T03:15:01;15.40;;;7.70;;
66800;SDS011;53703;50.326;19.122;2024-03-22T03:17:30;15.70;;;7.70;;
66800;SDS011;53703;50.326;19.122;2024-03-22T03:19:59;14.80;;;7.90;;
66800;SDS011;53703;50.326;19.122;2024-03-22T03:22:28;14.60;;;7.60;;
66800;SDS011;53703;50.326;19.122;2024-03-22T03:24:57;15.20;;;7.20;;
66800;SDS011;53703;50.326;19.122;2024-03-22T03:27:26;14.50;;;7.40;;
66800;SDS011;53703;50.326;19.122;2024-03-22T03:29:55;14.20;;;7.60;;
66800;SDS011;53703;50.326;19.122;2024-03-22T03:32:24;12.70;;;7.50;;
66800;SDS011;53703;50.326;19.122;2024-03-22T03:34:53;14.70;;;7.80;;
66800;SDS011;53703;50.326;19.122;2024-03-22T03:37:22;13.80;;;7.60;;
66800;SDS011;53703;50.326;19.122;2024-03-22T03:39:51;13.40;;;7.20;;
66800;SDS011;53703;50.326;19.122;2024-03-22T03:42:20;14.90;;;7.70;;
66800;SDS011;53703;50.326;19.122;2024-03-22T03:44:48;13.70;;;7.00;;
66800;SDS011;53703;50.326;19.122;2024-03-22T03:47:17;13.90;;;6.90;;
66800;SDS011;53703;50.326;19.122;2024-03-22T03:49:46;13.10;;;6.80;;
66800;SDS011;53703;50.326;19.122;2024-03-22T03:52:15;12.70;;;6.80;;
66800;SDS011;53703;50.326;19.122;2024-03-22T03:54:44;15.60;;;7.60;;
66800;SDS011;53703;50.326;19.122;2024-03-22T03:57:13;14.10;;;7.30;;
66800;SDS011;53703;50.326;19.122;2024-03-22T03:59:41;13.00;;;6.80;;
66800;SDS011;53703;50.326;19.122;2024-03-22T04:02:10;11.60;;;6.30;;
66800;SDS011;53703;50.326;19.122;2024-03-22T04:04:39;15.10;;;7.00;;
66800;SDS011;53703;50.326;19.122;2024-03-22T04:07:08;16.10;;;7.40;;
66800;SDS011;53703;50.326;19.122;2024-03-22T04:09:37;12.40;;;6.80;;
66800;SDS011;53703;50.326;19.122;2024-03-22T04:12:05;13.40;;;6.70;;
66800;SDS011;53703;50.326;19.122;2024-03-22T04:14:35;14.20;;;7.40;;
66800;SDS011;53703;50.326;19.122;2024-03-22T04:17:03;13.50;;;6.90;;
66800;SDS011;53703;50.326;19.122;2024-03-22T04:19:32;14.70;;;6.90;;
66800;SDS011;53703;50.326;19.122;2024-03-22T04:22:01;13.80;;;6.90;;
66800;SDS011;53703;50.326;19.122;2024-03-22T04:24:30;13.20;;;6.80;;
66800;SDS011;53703;50.326;19.122;2024-03-22T04:26:59;12.50;;;6.50;;
66800;SDS011;53703;50.326;19.122;2024-03-22T04:29:28;14.20;;;6.70;;
66800;SDS011;53703;50.326;19.122;2024-03-22T04:31:56;14.20;;;7.10;;
66800;SDS011;53703;50.326;19.122;2024-03-22T04:34:27;12.00;;;6.10;;
66800;SDS011;53703;50.326;19.122;2024-03-22T04:36:56;13.70;;;7.10;;
66800;SDS011;53703;50.326;19.122;2024-03-22T04:39:25;11.10;;;6.30;;
66800;SDS011;53703;50.326;19.122;2024-03-22T04:41:54;12.40;;;6.30;;
66800;SDS011;53703;50.326;19.122;2024-03-22T04:44:22;10.60;;;6.10;;
66800;SDS011;53703;50.326;19.122;2024-03-22T04:46:52;12.90;;;6.10;;
66800;SDS011;53703;50.326;19.122;2024-03-22T04:49:21;11.30;;;5.80;;
66800;SDS011;53703;50.326;19.122;2024-03-22T04:51:49;11.40;;;6.00;;
66800;SDS011;53703;50.326;19.122;2024-03-22T04:54:18;13.70;;;5.90;;
66800;SDS011;53703;50.326;19.122;2024-03-22T04:56:47;11.40;;;6.50;;
66800;SDS011;53703;50.326;19.122;2024-03-22T04:59:16;10.90;;;5.90;;
66800;SDS011;53703;50.326;19.122;2024-03-22T05:01:45;11.80;;;6.90;;
66800;SDS011;53703;50.326;19.122;2024-03-22T05:04:13;10.70;;;6.00;;
66800;SDS011;53703;50.326;19.122;2024-03-22T05:06:42;12.10;;;6.70;;
66800;SDS011;53703;50.326;19.122;2024-03-22T05:09:11;11.80;;;5.70;;
66800;SDS011;53703;50.326;19.122;2024-03-22T05:11:40;10.40;;;6.20;;
66800;SDS011;53703;50.326;19.122;2024-03-22T05:14:09;10.10;;;5.90;;
66800;SDS011;53703;50.326;19.122;2024-03-22T05:16:38;11.20;;;5.80;;
66800;SDS011;53703;50.326;19.122;2024-03-22T05:19:06;10.20;;;5.60;;
66800;SDS011;53703;50.326;19.122;2024-03-22T05:21:35;11.70;;;6.00;;
66800;SDS011;53703;50.326;19.122;2024-03-22T05:24:04;14.00;;;6.50;;
66800;SDS011;53703;50.326;19.122;2024-03-22T05:26:33;10.20;;;6.10;;
66800;SDS011;53703;50.326;19.122;2024-03-22T05:29:04;11.00;;;6.20;;
66800;SDS011;53703;50.326;19.122;2024-03-22T05:31:33;11.50;;;6.00;;
66800;SDS011;53703;50.326;19.122;2024-03-22T05:34:14;10.80;;;5.90;;
66800;SDS011;53703;50.326;19.122;2024-03-22T05:36:44;11.30;;;6.00;;
66800;SDS011;53703;50.326;19.122;2024-03-22T05:39:14;10.50;;;5.90;;
66800;SDS011;53703;50.326;19.122;2024-03-22T05:41:43;9.40;;;5.50;;
66800;SDS011;53703;50.326;19.122;2024-03-22T05:44:13;10.60;;;5.60;;
66800;SDS011;53703;50.326;19.122;2024-03-22T05:46:42;11.30;;;6.20;;
66800;SDS011;53703;50.326;19.122;2024-03-22T05:49:10;11.40;;;6.00;;
66800;SDS011;53703;50.326;19.122;2024-03-22T05:51:39;10.50;;;6.10;;
66800;SDS011;53703;50.326;19.122;2024-03-22T05:54:08;10.60;;;6.00;;
66800;SDS011;53703;50.326;19.122;2024-03-22T05:56:37;12.30;;;6.10;;
66800;SDS011;53703;50.326;19.122;2024-03-22T05:59:05;10.30;;;5.80;;
66800;SDS011;53703;50.326;19.122;2024-03-22T06:01:34;10.20;;;5.60;;
66800;SDS011;53703;50.326;19.122;2024-03-22T06:04:03;10.70;;;5.60;;
66800;SDS011;53703;50.326;19.122;2024-03-22T06:06:36;9.80;;;5.90;;
66800;SDS011;53703;50.326;19.122;2024-03-22T06:09:05;11.30;;;5.90;;
66800;SDS011;53703;50.326;19.122;2024-03-22T06:11:38;11.80;;;6.20;;
66800;SDS011;53703;50.326;19.122;2024-03-22T06:14:11;9.90;;;5.50;;
66800;SDS011;53703;50.326;19.122;2024-03-22T06:16:40;11.00;;;5.40;;
66800;SDS011;53703;50.326;19.122;2024-03-22T06:19:08;11.50;;;5.60;;
66800;SDS011;53703;50.326;19.122;2024-03-22T06:21:37;11.90;;;5.60;;
66800;SDS011;53703;50.326;19.122;2024-03-22T06:24:06;11.60;;;5.80;;
66800;SDS011;53703;50.326;19.122;2024-03-22T06:26:35;9.80;;;5.60;;
66800;SDS011;53703;50.326;19.122;2024-03-22T06:29:12;9.90;;;5.50;;
66800;SDS011;53703;50.326;19.122;2024-03-22T06:31:41;11.40;;;5.90;;
66800;SDS011;53703;50.326;19.122;2024-03-22T06:34:10;11.00;;;5.60;;
66800;SDS011;53703;50.326;19.122;2024-03-22T06:36:39;9.70;;;5.10;;
66800;SDS011;53703;50.326;19.122;2024-03-22T06:39:08;10.20;;;5.30;;
66800;SDS011;53703;50.326;19.122;2024-03-22T06:41:37;10.90;;;5.40;;
66800;SDS011;53703;50.326;19.122;2024-03-22T06:44:06;10.90;;;5.60;;
66800;SDS011;53703;50.326;19.122;2024-03-22T06:46:36;9.90;;;5.10;;
66800;SDS011;53703;50.326;19.122;2024-03-22T06:49:05;10.90;;;5.30;;
66800;SDS011;53703;50.326;19.122;2024-03-22T06:51:34;9.30;;;5.50;;
66800;SDS011;53703;50.326;19.122;2024-03-22T06:54:04;10.40;;;5.30;;
66800;SDS011;53703;50.326;19.122;2024-03-22T06:56:33;9.90;;;5.00;;
66800;SDS011;53703;50.326;19.122;2024-03-22T06:59:01;9.30;;;5.30;;
66800;SDS011;53703;50.326;19.122;2024-03-22T07:01:30;9.70;;;5.50;;
66800;SDS011;53703;50.326;19.122;2024-03-22T07:03:59;11.10;;;5.10;;
66800;SDS011;53703;50.326;19.122;2024-03-22T07:06:28;10.00;;;5.40;;
66800;SDS011;53703;50.326;19.122;2024-03-22T07:08:56;13.80;;;5.20;;
66800;SDS011;53703;50.326;19.122;2024-03-22T07:11:25;13.10;;;5.20;;
66800;SDS011;53703;50.326;19.122;2024-03-22T07:13:54;8.30;;;4.90;;
66800;SDS011;53703;50.326;19.122;2024-03-22T07:16:22;10.00;;;5.50;;
66800;SDS011;53703;50.326;19.122;2024-03-22T07:18:51;10.00;;;5.10;;
66800;SDS011;53703;50.326;19.122;2024-03-22T07:21:20;9.10;;;5.20;;
66800;SDS011;53703;50.326;19.122;2024-03-22T07:23:48;8.50;;;4.80;;
66800;SDS011;53703;50.326;19.122;2024-03-22T07:26:17;10.10;;;5.20;;
66800;SDS011;53703;50.326;19.122;2024-03-22T07:28:57;10.00;;;4.60;;
66800;SDS011;53703;50.326;19.122;2024-03-22T07:31:25;11.00;;;5.80;;
66800;SDS011;53703;50.326;19.122;2024-03-22T07:33:54;9.70;;;4.90;;
66800;SDS011;53703;50.326;19.122;2024-03-22T07:36:23;8.80;;;4.70;;
66800;SDS011;53703;50.326;19.122;2024-03-22T07:38:54;9.20;;;4.30;;
66800;SDS011;53703;50.326;19.122;2024-03-22T07:41:24;9.30;;;5.50;;
66800;SDS011;53703;50.326;19.122;2024-03-22T07:43:54;10.10;;;5.20;;
66800;SDS011;53703;50.326;19.122;2024-03-22T07:46:23;8.90;;;4.50;;
66800;SDS011;53703;50.326;19.122;2024-03-22T07:48:53;8.60;;;5.20;;
66800;SDS011;53703;50.326;19.122;2024-03-22T07:51:22;7.60;;;4.20;;
66800;SDS011;53703;50.326;19.122;2024-03-22T07:53:50;8.30;;;4.90;;
66800;SDS011;53703;50.326;19.122;2024-03-22T07:56:20;11.50;;;5.40;;
66800;SDS011;53703;50.326;19.122;2024-03-22T07:58:49;8.30;;;4.50;;
66800;SDS011;53703;50.326;19.122;2024-03-22T08:01:18;8.80;;;5.00;;
66800;SDS011;53703;50.326;19.122;2024-03-22T08:03:47;10.60;;;5.20;;
66800;SDS011;53703;50.326;19.122;2024-03-22T08:06:16;8.00;;;4.60;;
66800;SDS011;53703;50.326;19.122;2024-03-22T08:08:45;11.80;;;4.90;;
66800;SDS011;53703;50.326;19.122;2024-03-22T08:11:14;15.40;;;5.00;;
66800;SDS011;53703;50.326;19.122;2024-03-22T08:13:43;12.60;;;5.00;;
66800;SDS011;53703;50.326;19.122;2024-03-22T08:16:12;7.90;;;4.90;;
66800;SDS011;53703;50.326;19.122;2024-03-22T08:18:40;9.50;;;4.50;;
66800;SDS011;53703;50.326;19.122;2024-03-22T08:21:09;11.90;;;5.10;;
66800;SDS011;53703;50.326;19.122;2024-03-22T08:23:38;9.70;;;5.20;;
66800;SDS011;53703;50.326;19.122;2024-03-22T08:26:08;10.30;;;4.80;;
66800;SDS011;53703;50.326;19.122;2024-03-22T08:28:37;9.30;;;4.80;;
66800;SDS011;53703;50.326;19.122;2024-03-22T08:31:13;7.60;;;4.60;;
66800;SDS011;53703;50.326;19.122;2024-03-22T08:33:42;11.90;;;5.00;;
66800;SDS011;53703;50.326;19.122;2024-03-22T08:36:11;11.00;;;5.40;;
66800;SDS011;53703;50.326;19.122;2024-03-22T08:38:40;11.40;;;4.90;;
66800;SDS011;53703;50.326;19.122;2024-03-22T08:41:08;9.40;;;5.00;;
66800;SDS011;53703;50.326;19.122;2024-03-22T08:43:37;8.70;;;5.00;;
66800;SDS011;53703;50.326;19.122;2024-03-22T08:46:06;12.70;;;5.80;;
66800;SDS011;53703;50.326;19.122;2024-03-22T08:48:35;10.70;;;5.20;;
66800;SDS011;53703;50.326;19.122;2024-03-22T08:51:04;9.80;;;5.20;;
66800;SDS011;53703;50.326;19.122;2024-03-22T08:53:34;10.10;;;5.60;;
66800;SDS011;53703;50.326;19.122;2024-03-22T08:56:04;13.30;;;5.00;;
66800;SDS011;53703;50.326;19.122;2024-03-22T08:58:32;12.80;;;5.30;;
66800;SDS011;53703;50.326;19.122;2024-03-22T09:01:01;11.50;;;5.20;;
66800;SDS011;53703;50.326;19.122;2024-03-22T09:03:30;9.90;;;4.60;;
66800;SDS011;53703;50.326;19.122;2024-03-22T09:05:59;9.60;;;5.20;;
66800;SDS011;53703;50.326;19.122;2024-03-22T09:08:35;12.90;;;4.90;;
66800;SDS011;53703;50.326;19.122;2024-03-22T09:11:04;10.00;;;5.20;;
66800;SDS011;53703;50.326;19.122;2024-03-22T09:13:33;8.60;;;5.10;;
66800;SDS011;53703;50.326;19.122;2024-03-22T09:16:03;11.60;;;5.50;;
66800;SDS011;53703;50.326;19.122;2024-03-22T09:18:32;8.70;;;4.90;;
66800;SDS011;53703;50.326;19.122;2024-03-22T09:21:01;9.50;;;5.20;;
66800;SDS011;53703;50.326;19.122;2024-03-22T09:23:31;12.50;;;4.80;;
66800;SDS011;53703;50.326;19.122;2024-03-22T09:26:00;14.10;;;5.60;;
66800;SDS011;53703;50.326;19.122;2024-03-22T09:28:29;9.10;;;5.00;;
66800;SDS011;53703;50.326;19.122;2024-03-22T09:30:58;13.40;;;5.40;;
66800;SDS011;53703;50.326;19.122;2024-03-22T09:33:34;9.20;;;5.10;;
66800;SDS011;53703;50.326;19.122;2024-03-22T09:38:33;8.90;;;4.80;;
66800;SDS011;53703;50.326;19.122;2024-03-22T09:41:02;8.20;;;4.90;;
66800;SDS011;53703;50.326;19.122;2024-03-22T09:43:31;8.60;;;4.90;;
66800;SDS011;53703;50.326;19.122;2024-03-22T09:46:01;7.60;;;4.50;;
66800;SDS011;53703;50.326;19.122;2024-03-22T09:48:30;28.70;;;9.20;;
66800;SDS011;53703;50.326;19.122;2024-03-22T09:51:00;14.10;;;5.70;;
66800;SDS011;53703;50.326;19.122;2024-03-22T09:53:30;20.80;;;7.90;;
66800;SDS011;53703;50.326;19.122;2024-03-22T09:56:01;37.60;;;12.20;;
66800;SDS011;53703;50.326;19.122;2024-03-22T09:58:30;39.50;;;11.90;;
66800;SDS011;53703;50.326;19.122;2024-03-22T10:01:00;33.80;;;11.00;;
66800;SDS011;53703;50.326;19.122;2024-03-22T10:03:29;29.20;;;9.70;;
66800;SDS011;53703;50.326;19.122;2024-03-22T10:05:58;36.10;;;9.90;;
66800;SDS011;53703;50.326;19.122;2024-03-22T10:08:26;26.90;;;10.40;;
66800;SDS011;53703;50.326;19.122;2024-03-22T10:10:55;22.90;;;8.80;;
66800;SDS011;53703;50.326;19.122;2024-03-22T10:13:24;30.20;;;9.20;;
66800;SDS011;53703;50.326;19.122;2024-03-22T10:15:53;29.20;;;9.40;;
66800;SDS011;53703;50.326;19.122;2024-03-22T10:18:22;21.20;;;8.10;;
66800;SDS011;53703;50.326;19.122;2024-03-22T10:21:03;22.80;;;8.00;;
66800;SDS011;53703;50.326;19.122;2024-03-22T10:23:33;17.50;;;7.70;;
66800;SDS011;53703;50.326;19.122;2024-03-22T10:26:02;21.10;;;7.50;;
66800;SDS011;53703;50.326;19.122;2024-03-22T10:28:31;20.10;;;8.20;;
66800;SDS011;53703;50.326;19.122;2024-03-22T10:31:00;16.20;;;7.40;;
66800;SDS011;53703;50.326;19.122;2024-03-22T10:33:30;18.00;;;7.30;;
66800;SDS011;53703;50.326;19.122;2024-03-22T10:35:59;17.90;;;7.20;;
66800;SDS011;53703;50.326;19.122;2024-03-22T10:38:29;16.80;;;7.10;;
66800;SDS011;53703;50.326;19.122;2024-03-22T10:40:59;15.70;;;6.90;;
66800;SDS011;53703;50.326;19.122;2024-03-22T10:43:30;12.60;;;6.40;;
66800;SDS011;53703;50.326;19.122;2024-03-22T10:46:02;13.80;;;6.80;;
66800;SDS011;53703;50.326;19.122;2024-03-22T10:48:33;17.40;;;6.60;;
66800;SDS011;53703;50.326;19.122;2024-03-22T10:51:02;15.70;;;6.90;;
66800;SDS011;53703;50.326;19.122;2024-03-22T10:53:32;13.70;;;6.20;;
66800;SDS011;53703;50.326;19.122;2024-03-22T10:56:02;15.60;;;6.60;;
66800;SDS011;53703;50.326;19.122;2024-03-22T10:58:33;16.60;;;6.40;;
66800;SDS011;53703;50.326;19.122;2024-03-22T11:01:02;12.20;;;6.20;;
66800;SDS011;53703;50.326;19.122;2024-03-22T11:03:35;12.00;;;6.10;;
66800;SDS011;53703;50.326;19.122;2024-03-22T11:06:07;9.90;;;5.90;;
66800;SDS011;53703;50.326;19.122;2024-03-22T11:08:37;11.40;;;5.70;;
66800;SDS011;53703;50.326;19.122;2024-03-22T11:11:09;13.00;;;5.70;;
66800;SDS011;53703;50.326;19.122;2024-03-22T11:13:39;11.50;;;5.70;;
66800;SDS011;53703;50.326;19.122;2024-03-22T11:16:09;13.60;;;5.90;;
66800;SDS011;53703;50.326;19.122;2024-03-22T11:18:39;10.80;;;5.40;;
66800;SDS011;53703;50.326;19.122;2024-03-22T11:21:08;12.40;;;6.10;;
66800;SDS011;53703;50.326;19.122;2024-03-22T11:23:37;11.70;;;5.70;;
66800;SDS011;53703;50.326;19.122;2024-03-22T11:26:06;12.00;;;6.10;;
66800;SDS011;53703;50.326;19.122;2024-03-22T11:28:35;11.50;;;5.80;;
66800;SDS011;53703;50.326;19.122;2024-03-22T11:31:04;11.40;;;5.60;;
66800;SDS011;53703;50.326;19.122;2024-03-22T11:33:33;11.00;;;5.10;;
66800;SDS011;53703;50.326;19.122;2024-03-22T11:36:03;10.20;;;5.30;;
66800;SDS011;53703;50.326;19.122;2024-03-22T11:38:32;12.50;;;5.10;;
66800;SDS011;53703;50.326;19.122;2024-03-22T11:41:02;11.10;;;5.40;;
66800;SDS011;53703;50.326;19.122;2024-03-22T11:43:32;11.20;;;6.00;;
66800;SDS011;53703;50.326;19.122;2024-03-22T11:46:01;11.20;;;5.40;;
66800;SDS011;53703;50.326;19.122;2024-03-22T11:48:30;10.40;;;5.10;;
66800;SDS011;53703;50.326;19.122;2024-03-22T11:50:59;9.80;;;5.40;;
66800;SDS011;53703;50.326;19.122;2024-03-22T11:53:29;8.10;;;4.60;;
66800;SDS011;53703;50.326;19.122;2024-03-22T11:55:59;10.80;;;5.30;;
66800;SDS011;53703;50.326;19.122;2024-03-22T11:58:31;9.60;;;4.90;;
66800;SDS011;53703;50.326;19.122;2024-03-22T12:01:00;10.00;;;4.90;;
66800;SDS011;53703;50.326;19.122;2024-03-22T12:03:49;10.70;;;4.90;;
66800;SDS011;53703;50.326;19.122;2024-03-22T12:06:18;9.20;;;5.00;;
66800;SDS011;53703;50.326;19.122;2024-03-22T12:08:47;9.40;;;4.90;;
66800;SDS011;53703;50.326;19.122;2024-03-22T12:11:16;8.90;;;4.40;;
66800;SDS011;53703;50.326;19.122;2024-03-22T12:13:46;12.80;;;5.40;;
66800;SDS011;53703;50.326;19.122;2024-03-22T12:16:15;9.50;;;4.80;;
66800;SDS011;53703;50.326;19.122;2024-03-22T12:18:44;8.90;;;5.20;;
66800;SDS011;53703;50.326;19.122;2024-03-22T12:21:12;9.40;;;4.90;;
66800;SDS011;53703;50.326;19.122;2024-03-22T12:23:41;10.30;;;4.80;;
66800;SDS011;53703;50.326;19.122;2024-03-22T12:26:10;9.90;;;4.70;;
66800;SDS011;53703;50.326;19.122;2024-03-22T12:28:39;8.10;;;5.00;;
66800;SDS011;53703;50.326;19.122;2024-03-22T12:31:08;9.30;;;4.80;;
66800;SDS011;53703;50.326;19.122;2024-03-22T12:33:38;9.00;;;4.30;;
66800;SDS011;53703;50.326;19.122;2024-03-22T12:36:07;9.60;;;4.80;;
66800;SDS011;53703;50.326;19.122;2024-03-22T12:38:36;8.50;;;4.40;;
66800;SDS011;53703;50.326;19.122;2024-03-22T12:41:05;7.80;;;4.70;;
66800;SDS011;53703;50.326;19.122;2024-03-22T12:43:34;7.30;;;4.70;;
66800;SDS011;53703;50.326;19.122;2024-03-22T12:46:17;8.10;;;4.50;;
66800;SDS011;53703;50.326;19.122;2024-03-22T12:48:46;7.10;;;4.40;;
66800;SDS011;53703;50.326;19.122;2024-03-22T12:51:14;7.80;;;4.60;;
66800;SDS011;53703;50.326;19.122;2024-03-22T12:53:44;7.50;;;4.00;;
66800;SDS011;53703;50.326;19.122;2024-03-22T12:56:13;9.60;;;4.50;;
66800;SDS011;53703;50.326;19.122;2024-03-22T12:58:42;6.60;;;4.20;;
66800;SDS011;53703;50.326;19.122;2024-03-22T13:01:11;9.70;;;4.40;;
66800;SDS011;53703;50.326;19.122;2024-03-22T13:03:40;8.40;;;4.40;;
66800;SDS011;53703;50.326;19.122;2024-03-22T13:06:09;8.90;;;4.10;;
66800;SDS011;53703;50.326;19.122;2024-03-22T13:08:38;7.50;;;4.10;;
66800;SDS011;53703;50.326;19.122;2024-03-22T13:11:07;9.60;;;4.40;;
66800;SDS011;53703;50.326;19.122;2024-03-22T13:13:37;6.60;;;4.30;;
66800;SDS011;53703;50.326;19.122;2024-03-22T13:16:06;7.70;;;4.20;;
66800;SDS011;53703;50.326;19.122;2024-03-22T13:18:36;6.80;;;4.00;;
66800;SDS011;53703;50.326;19.122;2024-03-22T13:21:05;8.00;;;4.20;;
66800;SDS011;53703;50.326;19.122;2024-03-22T13:23:34;7.40;;;4.20;;
66800;SDS011;53703;50.326;19.122;2024-03-22T13:26:04;9.30;;;4.10;;
66800;SDS011;53703;50.326;19.122;2024-03-22T13:28:34;7.70;;;4.40;;
66800;SDS011;53703;50.326;19.122;2024-03-22T13:31:04;6.30;;;4.20;;
66800;SDS011;53703;50.326;19.122;2024-03-22T13:33:34;7.20;;;3.70;;
66800;SDS011;53703;50.326;19.122;2024-03-22T13:36:03;6.90;;;4.00;;
66800;SDS011;53703;50.326;19.122;2024-03-22T13:38:33;6.20;;;4.40;;
66800;SDS011;53703;50.326;19.122;2024-03-22T13:41:02;7.60;;;4.20;;
66800;SDS011;53703;50.326;19.122;2024-03-22T13:43:31;6.50;;;3.80;;
66800;SDS011;53703;50.326;19.122;2024-03-22T13:46:01;6.50;;;3.80;;
66800;SDS011;53703;50.326;19.122;2024-03-22T13:48:30;7.50;;;4.30;;
66800;SDS011;53703;50.326;19.122;2024-03-22T13:50:58;8.10;;;4.20;;
66800;SDS011;53703;50.326;19.122;2024-03-22T13:53:27;7.20;;;4.00;;
66800;SDS011;53703;50.326;19.122;2024-03-22T13:55:56;7.50;;;3.80;;
66800;SDS011;53703;50.326;19.122;2024-03-22T13:58:25;6.20;;;3.80;;
66800;SDS011;53703;50.326;19.122;2024-03-22T14:00:54;5.80;;;3.50;;
66800;SDS011;53703;50.326;19.122;2024-03-22T14:03:23;6.90;;;3.80;;
66800;SDS011;53703;50.326;19.122;2024-03-22T14:05:52;6.60;;;3.60;;
66800;SDS011;53703;50.326;19.122;2024-03-22T14:08:21;7.60;;;3.70;;
66800;SDS011;53703;50.326;19.122;2024-03-22T14:10:50;13.00;;;4.30;;
66800;SDS011;53703;50.326;19.122;2024-03-22T14:13:19;12.60;;;3.90;;
66800;SDS011;53703;50.326;19.122;2024-03-22T14:15:48;9.60;;;3.50;;
66800;SDS011;53703;50.326;19.122;2024-03-22T14:18:17;8.70;;;3.90;;
66800;SDS011;53703;50.326;19.122;2024-03-22T14:20:46;6.50;;;3.50;;
66800;SDS011;53703;50.326;19.122;2024-03-22T14:23:15;7.50;;;3.90;;
66800;SDS011;53703;50.326;19.122;2024-03-22T14:25:44;8.70;;;3.70;;
66800;SDS011;53703;50.326;19.122;2024-03-22T14:28:15;8.80;;;3.80;;
66800;SDS011;53703;50.326;19.122;2024-03-22T14:30:44;7.20;;;4.20;;
66800;SDS011;53703;50.326;19.122;2024-03-22T14:33:13;7.90;;;3.80;;
66800;SDS011;53703;50.326;19.122;2024-03-22T14:35:42;7.10;;;3.80;;
66800;SDS011;53703;50.326;19.122;2024-03-22T14:38:11;6.60;;;3.70;;